createdAt,value
2019-02-18T00:00:34.357Z,7.00
2019-02-18T00:01:16.497Z,7.00
2019-02-18T00:01:54.889Z,7.00
2019-02-18T00:02:29.506Z,7.00
2019-02-18T00:03:03.055Z,7.00
2019-02-18T00:03:36.213Z,6.94
2019-02-18T00:04:09.218Z,6.94
2019-02-18T00:04:42.145Z,6.94
2019-02-18T00:05:15.363Z,6.94
2019-02-18T00:05:48.415Z,6.94
2019-02-18T00:06:21.379Z,6.94
2019-02-18T00:06:54.391Z,6.94
2019-02-18T00:07:27.439Z,6.94
2019-02-18T00:08:00.471Z,6.87
2019-02-18T00:08:33.451Z,6.94
2019-02-18T00:09:06.468Z,6.94
2019-02-18T00:09:39.614Z,6.94
2019-02-18T00:10:12.642Z,6.94
2019-02-18T00:10:45.647Z,6.94
2019-02-18T00:11:18.587Z,6.94
2019-02-18T00:11:51.576Z,6.94
2019-02-18T00:12:24.593Z,6.94
2019-02-18T00:12:57.597Z,6.87
2019-02-18T00:13:30.631Z,6.87
2019-02-18T00:14:03.646Z,6.87
2019-02-18T00:14:36.675Z,6.87
2019-02-18T00:15:09.821Z,6.87
2019-02-18T00:15:42.923Z,6.87
2019-02-18T00:16:15.913Z,6.87
2019-02-18T00:16:49.053Z,6.87
2019-02-18T00:17:21.965Z,6.87
2019-02-18T00:17:55.070Z,6.94
2019-02-18T00:18:27.951Z,6.87
2019-02-18T00:19:00.885Z,6.94
2019-02-18T00:19:34.901Z,6.87
2019-02-18T00:20:09.104Z,6.87
2019-02-18T00:20:42.031Z,6.87
2019-02-18T00:21:15.007Z,6.81
2019-02-18T00:21:48.035Z,6.81
2019-02-18T00:22:21.844Z,6.81
2019-02-18T00:22:56.163Z,6.81
2019-02-18T00:23:29.014Z,6.75
2019-02-18T00:24:02.134Z,6.75
2019-02-18T00:24:35.047Z,6.75
2019-02-18T00:25:08.045Z,6.75
2019-02-18T00:25:41.067Z,6.75
2019-02-18T00:26:13.960Z,6.75
2019-02-18T00:26:46.947Z,6.75
2019-02-18T00:27:19.777Z,6.69
2019-02-18T00:27:52.669Z,6.69
2019-02-18T00:28:25.558Z,6.69
2019-02-18T00:28:58.462Z,6.62
2019-02-18T00:29:31.348Z,6.62
2019-02-18T00:30:04.446Z,6.62
2019-02-18T00:30:37.290Z,6.62
2019-02-18T00:31:10.209Z,6.56
2019-02-18T00:31:43.097Z,6.56
2019-02-18T00:32:16.139Z,6.56
2019-02-18T00:32:49.259Z,6.56
2019-02-18T00:33:22.278Z,6.56
2019-02-18T00:33:55.116Z,6.56
2019-02-18T00:34:28.010Z,6.50
2019-02-18T00:35:01.892Z,6.50
2019-02-18T00:35:35.019Z,6.50
2019-02-18T00:36:07.929Z,6.50
2019-02-18T00:36:40.912Z,6.50
2019-02-18T00:37:23.888Z,6.44
2019-02-18T00:37:49.053Z,6.44
2019-02-18T00:38:21.970Z,6.44
2019-02-18T00:38:54.890Z,6.44
2019-02-18T00:39:27.803Z,6.44
2019-02-18T00:40:00.674Z,6.37
2019-02-18T00:40:33.578Z,6.37
2019-02-18T00:41:06.607Z,6.44
2019-02-18T00:41:39.605Z,6.44
2019-02-18T00:42:12.746Z,6.44
2019-02-18T00:42:45.652Z,6.37
2019-02-18T00:43:18.628Z,6.37
2019-02-18T00:43:51.764Z,6.37
2019-02-18T00:44:24.837Z,6.37
2019-02-18T00:44:57.813Z,6.37
2019-02-18T00:45:30.772Z,6.37
2019-02-18T00:46:03.804Z,6.37
2019-02-18T00:46:36.755Z,6.31
2019-02-18T00:47:10.491Z,6.31
2019-02-18T00:47:44.434Z,6.31
2019-02-18T00:48:17.605Z,6.31
2019-02-18T00:48:50.615Z,6.25
2019-02-18T00:49:23.457Z,6.25
2019-02-18T00:49:56.507Z,6.25
2019-02-18T00:50:29.517Z,6.19
2019-02-18T00:51:03.746Z,6.19
2019-02-18T00:51:36.870Z,6.19
2019-02-18T00:52:09.962Z,6.19
2019-02-18T00:52:42.996Z,6.12
2019-02-18T00:53:16.485Z,6.12
2019-02-18T00:53:49.451Z,6.12
2019-02-18T00:54:22.483Z,6.19
2019-02-18T00:54:55.404Z,6.12
2019-02-18T00:55:28.352Z,6.12
2019-02-18T00:56:01.573Z,6.12
2019-02-18T00:56:34.569Z,6.12
2019-02-18T00:57:07.570Z,6.12
2019-02-18T00:57:40.594Z,6.06
2019-02-18T00:58:13.641Z,6.06
2019-02-18T00:58:46.533Z,6.06
2019-02-18T00:59:19.381Z,6.06
2019-02-18T00:59:52.370Z,6.06
2019-02-18T01:00:25.424Z,6.06
2019-02-18T01:00:58.417Z,6.06
2019-02-18T01:01:32.995Z,6.06
2019-02-18T01:02:05.980Z,6.06
2019-02-18T01:02:38.990Z,6.06
2019-02-18T01:03:11.816Z,6.06
2019-02-18T01:03:46.488Z,6.06
2019-02-18T01:04:19.474Z,6.06
2019-02-18T01:04:52.384Z,6.06
2019-02-18T01:05:25.467Z,6.06
2019-02-18T01:05:58.494Z,6.00
2019-02-18T01:06:31.405Z,6.00
2019-02-18T01:07:04.333Z,6.00
2019-02-18T01:07:37.317Z,6.00
2019-02-18T01:08:10.259Z,6.00
2019-02-18T01:08:43.270Z,6.00
2019-02-18T01:09:17.836Z,6.00
2019-02-18T01:09:50.852Z,6.00
2019-02-18T01:10:25.642Z,6.00
2019-02-18T01:10:58.571Z,5.94
2019-02-18T01:11:31.622Z,5.94
2019-02-18T01:12:04.717Z,5.94
2019-02-18T01:12:37.850Z,5.94
2019-02-18T01:13:10.843Z,5.94
2019-02-18T01:13:43.924Z,5.94
2019-02-18T01:14:16.942Z,5.94
2019-02-18T01:14:49.848Z,5.94
2019-02-18T01:15:22.860Z,5.87
2019-02-18T01:15:55.773Z,5.87
2019-02-18T01:16:28.644Z,5.87
2019-02-18T01:17:01.646Z,5.87
2019-02-18T01:17:34.664Z,5.81
2019-02-18T01:18:07.686Z,5.81
2019-02-18T01:18:40.880Z,5.81
2019-02-18T01:19:13.945Z,5.75
2019-02-18T01:19:47.866Z,5.75
2019-02-18T01:20:20.976Z,5.75
2019-02-18T01:20:54.012Z,5.75
2019-02-18T01:21:26.991Z,5.69
2019-02-18T01:21:59.895Z,5.69
2019-02-18T01:22:32.802Z,5.62
2019-02-18T01:23:05.796Z,5.62
2019-02-18T01:23:39.112Z,5.62
2019-02-18T01:24:12.012Z,5.62
2019-02-18T01:24:45.046Z,5.62
2019-02-18T01:25:18.122Z,5.56
2019-02-18T01:25:51.046Z,5.56
2019-02-18T01:26:23.997Z,5.56
2019-02-18T01:26:56.997Z,5.56
2019-02-18T01:27:29.961Z,5.56
2019-02-18T01:28:03.204Z,5.50
2019-02-18T01:28:36.142Z,5.50
2019-02-18T01:29:09.070Z,5.50
2019-02-18T01:29:41.958Z,5.44
2019-02-18T01:30:15.115Z,5.44
2019-02-18T01:30:49.016Z,5.44
2019-02-18T01:31:21.918Z,5.44
2019-02-18T01:31:55.026Z,5.37
2019-02-18T01:32:28.064Z,5.37
2019-02-18T01:33:01.126Z,5.37
2019-02-18T01:33:34.142Z,5.37
2019-02-18T01:34:07.020Z,5.31
2019-02-18T01:34:40.025Z,5.31
2019-02-18T01:35:13.245Z,5.31
2019-02-18T01:35:46.299Z,5.31
2019-02-18T01:36:19.300Z,5.31
2019-02-18T01:36:52.236Z,5.25
2019-02-18T01:37:25.160Z,5.25
2019-02-18T01:37:58.096Z,5.25
2019-02-18T01:38:31.108Z,5.25
2019-02-18T01:39:05.314Z,5.25
2019-02-18T01:39:39.313Z,5.19
2019-02-18T01:40:12.952Z,5.19
2019-02-18T01:40:45.946Z,5.19
2019-02-18T01:41:18.974Z,5.19
2019-02-18T01:41:51.902Z,5.12
2019-02-18T01:42:24.976Z,5.12
2019-02-18T01:42:57.989Z,5.12
2019-02-18T01:43:31.359Z,5.06
2019-02-18T01:44:04.352Z,5.06
2019-02-18T01:44:37.189Z,5.06
2019-02-18T01:45:11.612Z,5.06
2019-02-18T01:45:44.642Z,5.00
2019-02-18T01:46:19.282Z,5.00
2019-02-18T01:46:52.354Z,5.00
2019-02-18T01:47:25.446Z,4.94
2019-02-18T01:47:58.518Z,4.94
2019-02-18T01:48:31.473Z,4.94
2019-02-18T01:49:04.745Z,4.94
2019-02-18T01:49:37.886Z,4.87
2019-02-18T01:50:13.171Z,4.87
2019-02-18T01:50:46.208Z,4.87
2019-02-18T01:51:20.794Z,4.87
2019-02-18T01:51:53.775Z,4.81
2019-02-18T01:52:26.616Z,4.81
2019-02-18T01:53:00.806Z,4.81
2019-02-18T01:53:33.796Z,4.81
2019-02-18T01:54:06.763Z,4.81
2019-02-18T01:54:39.791Z,4.75
2019-02-18T01:55:12.872Z,4.75
2019-02-18T01:55:45.990Z,4.75
2019-02-18T01:56:19.114Z,4.75
2019-02-18T01:56:52.091Z,4.75
2019-02-18T01:57:25.022Z,4.75
2019-02-18T01:57:57.818Z,4.69
2019-02-18T01:58:30.725Z,4.69
2019-02-18T01:59:05.258Z,4.69
2019-02-18T01:59:38.101Z,4.69
2019-02-18T02:00:13.999Z,4.69
2019-02-18T02:00:47.052Z,4.69
2019-02-18T02:01:19.933Z,4.62
2019-02-18T02:01:52.986Z,4.62
2019-02-18T02:02:25.880Z,4.62
2019-02-18T02:02:59.027Z,4.62
2019-02-18T02:03:33.121Z,4.62
2019-02-18T02:04:06.152Z,4.62
2019-02-18T02:04:38.922Z,4.62
2019-02-18T02:05:14.418Z,4.62
2019-02-18T02:05:47.315Z,4.62
2019-02-18T02:06:20.468Z,4.62
2019-02-18T02:06:53.637Z,4.62
2019-02-18T02:07:26.577Z,4.56
2019-02-18T02:07:59.619Z,4.56
2019-02-18T02:08:33.695Z,4.56
2019-02-18T02:09:11.424Z,4.56
2019-02-18T02:09:44.571Z,4.56
2019-02-18T02:10:17.616Z,4.56
2019-02-18T02:10:50.570Z,4.50
2019-02-18T02:11:23.695Z,4.50
2019-02-18T02:11:56.698Z,4.50
2019-02-18T02:12:29.739Z,4.50
2019-02-18T02:13:32.068Z,4.50
2019-02-18T02:14:05.033Z,4.50
2019-02-18T02:14:38.101Z,4.44
2019-02-18T02:15:16.699Z,4.44
2019-02-18T02:15:49.600Z,4.44
2019-02-18T02:16:22.620Z,4.44
2019-02-18T02:16:55.703Z,4.37
2019-02-18T02:17:28.664Z,4.37
2019-02-18T02:18:01.602Z,4.37
2019-02-18T02:18:35.809Z,4.37
2019-02-18T02:19:08.856Z,4.31
2019-02-18T02:19:41.947Z,4.31
2019-02-18T02:20:15.019Z,4.31
2019-02-18T02:20:48.069Z,4.31
2019-02-18T02:21:21.032Z,4.31
2019-02-18T02:21:53.871Z,4.31
2019-02-18T02:22:26.959Z,4.25
2019-02-18T02:22:59.967Z,4.25
2019-02-18T02:23:32.805Z,4.25
2019-02-18T02:24:05.725Z,4.25
2019-02-18T02:24:38.666Z,4.25
2019-02-18T02:25:11.714Z,4.25
2019-02-18T02:25:44.676Z,4.19
2019-02-18T02:26:17.701Z,4.19
2019-02-18T02:26:50.557Z,4.19
2019-02-18T02:27:23.487Z,4.19
2019-02-18T02:27:56.441Z,4.19
2019-02-18T02:28:29.575Z,4.19
2019-02-18T02:29:02.739Z,4.19
2019-02-18T02:29:35.781Z,4.19
2019-02-18T02:30:09.057Z,4.19
2019-02-18T02:30:42.211Z,4.12
2019-02-18T02:31:15.295Z,4.12
2019-02-18T02:31:48.413Z,4.12
2019-02-18T02:32:21.380Z,4.12
2019-02-18T02:32:54.236Z,4.12
2019-02-18T02:33:27.304Z,4.12
2019-02-18T02:34:00.267Z,4.12
2019-02-18T02:34:33.272Z,4.12
2019-02-18T02:35:06.330Z,4.12
2019-02-18T02:35:39.389Z,4.12
2019-02-18T02:36:12.475Z,4.12
2019-02-18T02:36:47.088Z,4.06
2019-02-18T02:37:21.165Z,4.06
2019-02-18T02:37:54.107Z,4.06
2019-02-18T02:38:28.262Z,4.06
2019-02-18T02:39:01.222Z,4.06
2019-02-18T02:39:35.987Z,4.06
2019-02-18T02:40:09.236Z,4.06
2019-02-18T02:40:42.544Z,4.06
2019-02-18T02:41:15.468Z,4.06
2019-02-18T02:41:48.337Z,4.06
2019-02-18T02:42:21.331Z,4.06
2019-02-18T02:42:54.299Z,4.06
2019-02-18T02:43:27.370Z,4.06
2019-02-18T02:44:00.322Z,4.06
2019-02-18T02:44:33.411Z,4.06
2019-02-18T02:45:06.553Z,4.06
2019-02-18T02:45:39.749Z,4.06
2019-02-18T02:46:12.666Z,4.06
2019-02-18T02:46:45.590Z,4.00
2019-02-18T02:47:18.469Z,4.00
2019-02-18T02:47:51.435Z,4.06
2019-02-18T02:48:24.507Z,4.00
2019-02-18T02:48:57.471Z,4.00
2019-02-18T02:49:30.558Z,4.00
2019-02-18T02:50:03.783Z,4.00
2019-02-18T02:50:36.699Z,4.00
2019-02-18T02:51:09.759Z,4.00
2019-02-18T02:51:42.803Z,4.00
2019-02-18T02:52:15.761Z,4.00
2019-02-18T02:52:48.771Z,4.00
2019-02-18T02:53:21.791Z,4.00
2019-02-18T02:53:54.725Z,4.00
2019-02-18T02:54:28.719Z,4.00
2019-02-18T02:55:01.772Z,4.00
2019-02-18T02:55:34.744Z,4.00
2019-02-18T02:56:07.682Z,4.00
2019-02-18T02:56:40.626Z,4.00
2019-02-18T02:57:13.497Z,3.94
2019-02-18T02:57:46.283Z,3.94
2019-02-18T02:58:19.312Z,3.94
2019-02-18T02:58:53.311Z,3.94
2019-02-18T02:59:26.142Z,3.94
2019-02-18T02:59:59.029Z,3.94
2019-02-18T03:00:32.076Z,3.94
2019-02-18T03:01:06.738Z,3.94
2019-02-18T03:01:39.766Z,3.94
2019-02-18T03:02:12.673Z,3.94
2019-02-18T03:02:45.594Z,3.87
2019-02-18T03:03:18.615Z,3.87
2019-02-18T03:03:51.523Z,3.87
2019-02-18T03:04:24.409Z,3.87
2019-02-18T03:04:57.263Z,3.87
2019-02-18T03:05:30.163Z,3.81
2019-02-18T03:06:03.157Z,3.81
2019-02-18T03:06:36.054Z,3.81
2019-02-18T03:07:08.975Z,3.81
2019-02-18T03:07:43.173Z,3.81
2019-02-18T03:08:20.399Z,3.81
2019-02-18T03:08:50.969Z,3.81
2019-02-18T03:09:23.939Z,3.75
2019-02-18T03:09:56.968Z,3.75
2019-02-18T03:10:29.996Z,3.75
2019-02-18T03:11:03.129Z,3.75
2019-02-18T03:11:36.085Z,3.75
2019-02-18T03:12:10.521Z,3.75
2019-02-18T03:12:43.482Z,3.75
2019-02-18T03:13:16.378Z,3.69
2019-02-18T03:13:49.411Z,3.69
2019-02-18T03:14:23.760Z,3.69
2019-02-18T03:14:56.613Z,3.69
2019-02-18T03:15:31.216Z,3.69
2019-02-18T03:16:04.274Z,3.69
2019-02-18T03:16:37.207Z,3.69
2019-02-18T03:17:10.247Z,3.69
2019-02-18T03:17:43.319Z,3.69
2019-02-18T03:18:16.249Z,3.62
2019-02-18T03:18:49.279Z,3.62
2019-02-18T03:19:22.229Z,3.62
2019-02-18T03:19:55.297Z,3.62
2019-02-18T03:20:28.310Z,3.62
2019-02-18T03:21:01.324Z,3.62
2019-02-18T03:21:34.195Z,3.62
2019-02-18T03:22:07.427Z,3.56
2019-02-18T03:22:40.481Z,3.56
2019-02-18T03:23:13.391Z,3.56
2019-02-18T03:23:46.181Z,3.56
2019-02-18T03:24:19.109Z,3.56
2019-02-18T03:25:16.813Z,3.56
2019-02-18T03:25:53.247Z,3.56
2019-02-18T03:26:26.163Z,3.56
2019-02-18T03:26:58.973Z,3.50
2019-02-18T03:27:31.877Z,3.56
2019-02-18T03:29:00.350Z,3.56
2019-02-18T03:30:27.690Z,3.56
2019-02-18T03:31:10.902Z,3.56
2019-02-18T03:31:43.922Z,3.56
2019-02-18T03:32:17.103Z,3.56
2019-02-18T03:32:55.028Z,3.56
2019-02-18T03:34:05.834Z,3.56
2019-02-18T03:34:42.961Z,3.56
2019-02-18T03:35:15.927Z,3.56
2019-02-18T03:35:48.947Z,3.56
2019-02-18T03:36:21.824Z,3.56
2019-02-18T03:36:54.726Z,3.56
2019-02-18T03:37:27.890Z,3.56
2019-02-18T03:38:00.831Z,3.56
2019-02-18T03:38:33.751Z,3.56
2019-02-18T03:39:06.877Z,3.56
2019-02-18T03:39:39.916Z,3.56
2019-02-18T03:40:13.000Z,3.50
2019-02-18T03:40:45.998Z,3.50
2019-02-18T03:41:18.936Z,3.50
2019-02-18T03:41:51.970Z,3.50
2019-02-18T03:42:24.856Z,3.50
2019-02-18T03:42:57.965Z,3.50
2019-02-18T03:43:31.151Z,3.50
2019-02-18T03:44:04.166Z,3.50
2019-02-18T03:44:36.983Z,3.50
2019-02-18T03:45:10.016Z,3.50
2019-02-18T03:45:43.005Z,3.50
2019-02-18T03:46:15.929Z,3.50
2019-02-18T03:46:50.751Z,3.50
2019-02-18T03:47:24.922Z,3.50
2019-02-18T03:47:57.840Z,3.50
2019-02-18T03:48:30.733Z,3.44
2019-02-18T03:49:03.760Z,3.44
2019-02-18T03:49:36.672Z,3.50
2019-02-18T03:50:09.784Z,3.44
2019-02-18T03:50:42.769Z,3.44
2019-02-18T03:51:15.765Z,3.44
2019-02-18T03:51:48.801Z,3.44
2019-02-18T03:52:21.815Z,3.44
2019-02-18T03:52:54.715Z,3.44
2019-02-18T03:53:27.891Z,3.44
2019-02-18T03:54:00.945Z,3.44
2019-02-18T03:54:33.980Z,3.44
2019-02-18T03:55:07.896Z,3.44
2019-02-18T03:55:41.274Z,3.44
2019-02-18T03:56:14.265Z,3.44
2019-02-18T03:56:47.195Z,3.44
2019-02-18T03:57:20.195Z,3.44
2019-02-18T03:57:53.241Z,3.44
2019-02-18T03:58:26.359Z,3.44
2019-02-18T03:58:59.415Z,3.44
2019-02-18T03:59:32.486Z,3.44
2019-02-18T04:00:06.282Z,3.44
2019-02-18T04:00:39.200Z,3.44
2019-02-18T04:01:12.146Z,3.37
2019-02-18T04:01:45.111Z,3.37
2019-02-18T04:02:18.060Z,3.37
2019-02-18T04:02:50.955Z,3.37
2019-02-18T04:03:23.999Z,3.37
2019-02-18T04:03:57.033Z,3.37
2019-02-18T04:04:30.069Z,3.37
2019-02-18T04:05:03.805Z,3.37
2019-02-18T04:05:36.791Z,3.31
2019-02-18T04:06:09.679Z,3.31
2019-02-18T04:06:42.608Z,3.31
2019-02-18T04:07:15.522Z,3.31
2019-02-18T04:07:49.160Z,3.31
2019-02-18T04:08:22.094Z,3.31
2019-02-18T04:08:55.023Z,3.31
2019-02-18T04:09:28.916Z,3.31
2019-02-18T04:10:02.001Z,3.31
2019-02-18T04:10:34.988Z,3.31
2019-02-18T04:11:08.005Z,3.31
2019-02-18T04:11:40.909Z,3.31
2019-02-18T04:12:13.820Z,3.31
2019-02-18T04:12:46.718Z,3.31
2019-02-18T04:13:19.652Z,3.31
2019-02-18T04:13:52.495Z,3.31
2019-02-18T04:14:25.505Z,3.31
2019-02-18T04:14:58.404Z,3.31
2019-02-18T04:15:31.357Z,3.31
2019-02-18T04:16:04.483Z,3.31
2019-02-18T04:16:37.391Z,3.31
2019-02-18T04:17:10.317Z,3.37
2019-02-18T04:17:43.453Z,3.37
2019-02-18T04:18:16.337Z,3.37
2019-02-18T04:18:49.270Z,3.37
2019-02-18T04:19:22.282Z,3.37
2019-02-18T04:19:55.204Z,3.37
2019-02-18T04:20:28.108Z,3.37
2019-02-18T04:21:01.017Z,3.37
2019-02-18T04:21:34.908Z,3.37
2019-02-18T04:22:08.033Z,3.37
2019-02-18T04:22:41.971Z,3.37
2019-02-18T04:23:14.991Z,3.37
2019-02-18T04:23:47.885Z,3.31
2019-02-18T04:24:20.785Z,3.31
2019-02-18T04:24:53.674Z,3.31
2019-02-18T04:25:26.606Z,3.31
2019-02-18T04:25:59.726Z,3.31
2019-02-18T04:26:32.616Z,3.31
2019-02-18T04:27:05.716Z,3.31
2019-02-18T04:27:38.608Z,3.25
2019-02-18T04:28:11.578Z,3.25
2019-02-18T04:28:44.605Z,3.25
2019-02-18T04:29:17.496Z,3.25
2019-02-18T04:29:50.415Z,3.25
2019-02-18T04:30:23.452Z,3.25
2019-02-18T04:30:56.551Z,3.25
2019-02-18T04:31:29.578Z,3.19
2019-02-18T04:32:02.478Z,3.19
2019-02-18T04:32:35.398Z,3.19
2019-02-18T04:33:08.169Z,3.19
2019-02-18T04:33:41.087Z,3.19
2019-02-18T04:34:14.016Z,3.19
2019-02-18T04:34:46.958Z,3.19
2019-02-18T04:35:19.812Z,3.12
2019-02-18T04:35:52.759Z,3.12
2019-02-18T04:36:25.638Z,3.12
2019-02-18T04:36:58.577Z,3.12
2019-02-18T04:37:31.464Z,3.12
2019-02-18T04:38:04.528Z,3.06
2019-02-18T04:38:37.334Z,3.06
2019-02-18T04:39:10.292Z,3.06
2019-02-18T04:39:43.279Z,3.06
2019-02-18T04:40:16.204Z,3.06
2019-02-18T04:40:49.030Z,3.00
2019-02-18T04:41:21.914Z,3.00
2019-02-18T04:41:54.800Z,3.00
2019-02-18T04:42:27.839Z,3.00
2019-02-18T04:43:00.642Z,3.00
2019-02-18T04:43:33.672Z,3.00
2019-02-18T04:44:06.658Z,3.00
2019-02-18T04:44:39.635Z,3.00
2019-02-18T04:45:12.529Z,3.00
2019-02-18T04:45:45.400Z,3.00
2019-02-18T04:46:18.418Z,3.00
2019-02-18T04:46:51.519Z,3.00
2019-02-18T04:47:24.394Z,3.00
2019-02-18T04:47:57.975Z,3.00
2019-02-18T04:48:30.968Z,3.00
2019-02-18T04:49:05.151Z,3.00
2019-02-18T04:49:38.145Z,2.94
2019-02-18T04:50:11.218Z,2.94
2019-02-18T04:50:44.200Z,2.94
2019-02-18T04:51:17.361Z,2.94
2019-02-18T04:51:50.288Z,2.94
2019-02-18T04:52:23.234Z,2.94
2019-02-18T04:52:56.205Z,2.94
2019-02-18T04:53:29.064Z,2.87
2019-02-18T04:54:02.070Z,2.87
2019-02-18T04:54:35.232Z,2.87
2019-02-18T04:55:08.486Z,2.87
2019-02-18T04:55:41.429Z,2.81
2019-02-18T04:56:14.210Z,2.81
2019-02-18T04:56:47.126Z,2.81
2019-02-18T04:57:20.037Z,2.81
2019-02-18T04:57:54.513Z,2.81
2019-02-18T04:58:27.387Z,2.81
2019-02-18T04:59:00.518Z,2.81
2019-02-18T04:59:33.415Z,2.81
2019-02-18T05:00:08.525Z,2.81
2019-02-18T05:00:41.341Z,2.75
2019-02-18T05:01:15.390Z,2.81
2019-02-18T05:01:49.376Z,2.81
2019-02-18T05:02:22.319Z,2.75
2019-02-18T05:02:55.097Z,2.75
2019-02-18T05:03:27.972Z,2.75
2019-02-18T05:04:01.023Z,2.75
2019-02-18T05:04:34.080Z,2.75
2019-02-18T05:05:07.206Z,2.75
2019-02-18T05:05:41.700Z,2.75
2019-02-18T05:06:14.627Z,2.75
2019-02-18T05:06:47.578Z,2.75
2019-02-18T05:07:20.371Z,2.75
2019-02-18T05:07:53.418Z,2.75
2019-02-18T05:08:26.307Z,2.75
2019-02-18T05:09:05.432Z,2.69
2019-02-18T05:09:34.325Z,2.69
2019-02-18T05:10:08.157Z,2.69
2019-02-18T05:10:41.062Z,2.69
2019-02-18T05:11:14.017Z,2.69
2019-02-18T05:11:46.855Z,2.69
2019-02-18T05:12:19.706Z,2.69
2019-02-18T05:12:52.594Z,2.69
2019-02-18T05:13:26.722Z,2.69
2019-02-18T05:13:59.628Z,2.69
2019-02-18T05:14:32.745Z,2.69
2019-02-18T05:15:05.860Z,2.69
2019-02-18T05:15:40.350Z,2.69
2019-02-18T05:16:13.682Z,2.69
2019-02-18T05:16:46.577Z,2.69
2019-02-18T05:17:19.533Z,2.69
2019-02-18T05:17:52.433Z,2.75
2019-02-18T05:18:25.551Z,2.69
2019-02-18T05:18:58.565Z,2.69
2019-02-18T05:19:33.096Z,2.69
2019-02-18T05:20:06.115Z,2.69
2019-02-18T05:20:39.211Z,2.69
2019-02-18T05:21:12.546Z,2.69
2019-02-18T05:21:45.500Z,2.69
2019-02-18T05:22:18.325Z,2.62
2019-02-18T05:22:51.256Z,2.62
2019-02-18T05:23:24.081Z,2.62
2019-02-18T05:23:57.029Z,2.62
2019-02-18T05:24:29.840Z,2.62
2019-02-18T05:25:03.113Z,2.62
2019-02-18T05:25:35.925Z,2.62
2019-02-18T05:26:08.939Z,2.62
2019-02-18T05:26:42.218Z,2.62
2019-02-18T05:27:15.096Z,2.62
2019-02-18T05:27:48.040Z,2.62
2019-02-18T05:28:20.982Z,2.62
2019-02-18T05:28:53.892Z,2.62
2019-02-18T05:29:26.939Z,2.56
2019-02-18T05:29:59.967Z,2.56
2019-02-18T05:30:32.975Z,2.56
2019-02-18T05:31:05.888Z,2.56
2019-02-18T05:31:38.980Z,2.56
2019-02-18T05:32:12.006Z,2.56
2019-02-18T05:32:44.917Z,2.56
2019-02-18T05:33:17.717Z,2.56
2019-02-18T05:33:50.646Z,2.56
2019-02-18T05:34:23.662Z,2.56
2019-02-18T05:34:56.609Z,2.56
2019-02-18T05:35:29.531Z,2.56
2019-02-18T05:36:02.562Z,2.50
2019-02-18T05:36:35.368Z,2.50
2019-02-18T05:37:09.024Z,2.50
2019-02-18T05:37:42.055Z,2.50
2019-02-18T05:38:15.085Z,2.50
2019-02-18T05:38:48.036Z,2.50
2019-02-18T05:39:20.977Z,2.50
2019-02-18T05:39:55.512Z,2.50
2019-02-18T05:40:28.731Z,2.50
2019-02-18T05:41:01.724Z,2.50
2019-02-18T05:41:34.788Z,2.50
2019-02-18T05:42:09.311Z,2.50
2019-02-18T05:42:42.369Z,2.50
2019-02-18T05:43:15.210Z,2.50
2019-02-18T05:43:48.209Z,2.50
2019-02-18T05:44:22.140Z,2.50
2019-02-18T05:44:55.299Z,2.50
2019-02-18T05:45:28.309Z,2.56
2019-02-18T05:46:01.351Z,2.56
2019-02-18T05:46:34.221Z,2.56
2019-02-18T05:47:07.267Z,2.56
2019-02-18T05:47:40.193Z,2.56
2019-02-18T05:48:13.199Z,2.56
2019-02-18T05:48:46.168Z,2.56
2019-02-18T05:49:18.985Z,2.56
2019-02-18T05:49:51.961Z,2.62
2019-02-18T05:50:24.932Z,2.62
2019-02-18T05:50:59.497Z,2.62
2019-02-18T05:51:32.469Z,2.62
2019-02-18T05:52:06.450Z,2.62
2019-02-18T05:52:39.271Z,2.62
2019-02-18T05:53:12.318Z,2.56
2019-02-18T05:53:46.306Z,2.62
2019-02-18T05:54:19.334Z,2.56
2019-02-18T05:54:52.326Z,2.56
2019-02-18T05:55:25.458Z,2.56
2019-02-18T05:55:58.379Z,2.56
2019-02-18T05:56:31.323Z,2.56
2019-02-18T05:57:04.525Z,2.56
2019-02-18T05:57:37.687Z,2.50
2019-02-18T05:58:10.875Z,2.50
2019-02-18T05:58:44.084Z,2.50
2019-02-18T05:59:17.258Z,2.50
2019-02-18T05:59:50.243Z,2.50
2019-02-18T06:00:23.336Z,2.50
2019-02-18T06:00:56.268Z,2.50
2019-02-18T06:01:29.230Z,2.50
2019-02-18T06:02:02.923Z,2.50
2019-02-18T06:02:35.818Z,2.50
2019-02-18T06:03:08.756Z,2.50
2019-02-18T06:03:41.729Z,2.50
2019-02-18T06:04:15.790Z,2.50
2019-02-18T06:04:48.943Z,2.50
2019-02-18T06:05:21.922Z,2.50
2019-02-18T06:05:54.973Z,2.56
2019-02-18T06:06:27.931Z,2.50
2019-02-18T06:07:00.859Z,2.50
2019-02-18T06:07:33.903Z,2.50
2019-02-18T06:08:06.789Z,2.50
2019-02-18T06:08:39.676Z,2.50
2019-02-18T06:09:12.537Z,2.50
2019-02-18T06:09:45.540Z,2.50
2019-02-18T06:10:18.504Z,2.50
2019-02-18T06:10:51.695Z,2.50
2019-02-18T06:11:24.756Z,2.50
2019-02-18T06:11:57.765Z,2.50
2019-02-18T06:12:30.655Z,2.50
2019-02-18T06:13:03.809Z,2.50
2019-02-18T06:13:36.931Z,2.50
2019-02-18T06:14:09.986Z,2.44
2019-02-18T06:14:43.034Z,2.44
2019-02-18T06:15:16.166Z,2.44
2019-02-18T06:15:50.364Z,2.44
2019-02-18T06:16:23.311Z,2.44
2019-02-18T06:16:56.270Z,2.44
2019-02-18T06:17:29.306Z,2.44
2019-02-18T06:18:02.493Z,2.44
2019-02-18T06:18:35.526Z,2.44
2019-02-18T06:19:08.496Z,2.44
2019-02-18T06:19:41.670Z,2.44
2019-02-18T06:20:14.620Z,2.44
2019-02-18T06:20:47.644Z,2.37
2019-02-18T06:21:20.529Z,2.37
2019-02-18T06:21:53.488Z,2.44
2019-02-18T06:22:26.543Z,2.37
2019-02-18T06:22:59.612Z,2.37
2019-02-18T06:23:32.735Z,2.37
2019-02-18T06:24:05.660Z,2.37
2019-02-18T06:24:38.636Z,2.37
2019-02-18T06:25:11.594Z,2.37
2019-02-18T06:25:44.532Z,2.37
2019-02-18T06:26:17.502Z,2.37
2019-02-18T06:26:50.436Z,2.37
2019-02-18T06:27:23.703Z,2.37
2019-02-18T06:27:56.518Z,2.37
2019-02-18T06:28:29.489Z,2.37
2019-02-18T06:29:02.417Z,2.37
2019-02-18T06:29:35.301Z,2.37
2019-02-18T06:30:08.767Z,2.37
2019-02-18T06:30:41.884Z,2.37
2019-02-18T06:31:14.880Z,2.37
2019-02-18T06:31:47.990Z,2.37
2019-02-18T06:32:21.069Z,2.31
2019-02-18T06:32:53.952Z,2.37
2019-02-18T06:33:28.434Z,2.31
2019-02-18T06:34:01.372Z,2.31
2019-02-18T06:34:34.301Z,2.31
2019-02-18T06:35:07.424Z,2.31
2019-02-18T06:35:40.353Z,2.31
2019-02-18T06:36:13.240Z,2.31
2019-02-18T06:36:46.192Z,2.31
2019-02-18T06:37:19.000Z,2.31
2019-02-18T06:37:51.897Z,2.31
2019-02-18T06:38:24.714Z,2.31
2019-02-18T06:38:57.911Z,2.37
2019-02-18T06:39:40.689Z,2.31
2019-02-18T06:40:06.741Z,2.37
2019-02-18T06:40:39.744Z,2.37
2019-02-18T06:41:12.800Z,2.37
2019-02-18T06:41:46.613Z,2.37
2019-02-18T06:42:19.512Z,2.37
2019-02-18T06:42:52.300Z,2.37
2019-02-18T06:43:25.372Z,2.37
2019-02-18T06:43:58.272Z,2.37
2019-02-18T06:44:46.856Z,2.37
2019-02-18T06:45:39.491Z,2.37
2019-02-18T06:46:20.452Z,2.37
2019-02-18T06:46:58.632Z,2.37
2019-02-18T06:47:31.580Z,2.37
2019-02-18T06:48:24.219Z,2.37
2019-02-18T06:49:07.175Z,2.37
2019-02-18T06:49:40.064Z,2.37
2019-02-18T06:50:12.988Z,2.37
2019-02-18T06:50:45.881Z,2.31
2019-02-18T06:51:18.843Z,2.37
2019-02-18T06:51:51.740Z,2.37
2019-02-18T06:52:24.661Z,2.37
2019-02-18T06:52:57.564Z,2.37
2019-02-18T06:53:30.464Z,2.37
2019-02-18T06:54:03.538Z,2.37
2019-02-18T06:54:36.466Z,2.37
2019-02-18T06:55:09.486Z,2.37
2019-02-18T06:55:42.399Z,2.37
2019-02-18T06:56:17.910Z,2.37
2019-02-18T06:57:19.468Z,2.37
2019-02-18T06:58:17.814Z,2.37
2019-02-18T06:58:57.924Z,2.37
2019-02-18T06:59:37.443Z,2.37
2019-02-18T07:00:29.141Z,2.37
2019-02-18T07:01:11.109Z,2.44
2019-02-18T07:01:53.829Z,2.44
2019-02-18T07:02:50.308Z,2.50
2019-02-18T07:03:30.814Z,2.50
2019-02-18T07:04:21.096Z,2.56
2019-02-18T07:05:00.940Z,2.56
2019-02-18T07:05:48.637Z,2.56
2019-02-18T07:06:39.822Z,2.56
2019-02-18T07:07:35.490Z,2.62
2019-02-18T07:08:14.672Z,2.62
2019-02-18T07:08:59.417Z,2.62
2019-02-18T07:09:50.727Z,2.62
2019-02-18T07:10:23.983Z,2.69
2019-02-18T07:11:01.065Z,2.69
2019-02-18T07:11:57.278Z,2.75
2019-02-18T07:12:33.434Z,2.75
2019-02-18T07:13:07.814Z,2.75
2019-02-18T07:13:40.807Z,2.75
2019-02-18T07:14:13.719Z,2.75
2019-02-18T07:14:46.678Z,2.81
2019-02-18T07:15:19.700Z,2.81
2019-02-18T07:15:52.826Z,2.81
2019-02-18T07:16:25.884Z,2.81
2019-02-18T07:16:58.774Z,2.81
2019-02-18T07:17:31.748Z,2.81
2019-02-18T07:18:04.817Z,2.87
2019-02-18T07:18:37.756Z,2.87
2019-02-18T07:19:10.859Z,2.87
2019-02-18T07:19:43.764Z,2.87
2019-02-18T07:20:16.822Z,2.87
2019-02-18T07:20:49.888Z,2.87
2019-02-18T07:21:22.884Z,2.87
2019-02-18T07:21:55.877Z,2.87
2019-02-18T07:22:28.844Z,2.94
2019-02-18T07:23:04.544Z,2.94
2019-02-18T07:23:37.664Z,2.94
2019-02-18T07:24:11.468Z,2.94
2019-02-18T07:24:44.595Z,3.00
2019-02-18T07:25:17.685Z,3.00
2019-02-18T07:25:50.853Z,3.00
2019-02-18T07:26:23.923Z,3.06
2019-02-18T07:26:56.837Z,3.06
2019-02-18T07:27:30.320Z,3.06
2019-02-18T07:28:03.497Z,3.06
2019-02-18T07:28:36.535Z,3.06
2019-02-18T07:29:09.539Z,3.06
2019-02-18T07:29:42.620Z,3.12
2019-02-18T07:30:16.128Z,3.12
2019-02-18T07:30:49.225Z,3.12
2019-02-18T07:31:22.203Z,3.12